Time;durP1;ratioP1;P1;durP2;ratioP2;P2;SDS_P1;SDS_P2;PMS_P1;PMS_P2;Temp;Humidity;BMP_temperature;BMP_pressure;BME280_temperature;BME280_humidity;BME280_pressure;Samples;Min_cycle;Max_cycle;Signal;HPM_P1;HPM_P2
2021/04/26 00:00:50;;;;;;;6.07;3.70;;;11.00;76.60;;;;;;5021815;28;21069;-52
2021/04/26 00:03:17;;;;;;;5.07;3.50;;;11.00;77.80;;;;;;5019396;28;20448;-52
2021/04/26 00:05:44;;;;;;;3.20;2.90;;;11.00;78.80;;;;;;5032696;28;20949;-51
2021/04/26 00:08:10;;;;;;;5.73;3.20;;;11.00;78.20;;;;;;5031625;28;20484;-52
2021/04/26 00:10:37;;;;;;;6.13;3.20;;;11.10;78.40;;;;;;5031889;28;20480;-52
2021/04/26 00:13:03;;;;;;;5.33;3.27;;;11.20;78.50;;;;;;5032512;28;20452;-53
2021/04/26 00:15:31;;;;;;;3.93;3.30;;;11.20;78.90;;;;;;5033578;28;20523;-52
2021/04/26 00:17:58;;;;;;;5.30;3.70;;;11.30;79.10;;;;;;5032108;28;20453;-52
2021/04/26 00:20:27;;;;;;;4.80;3.23;;;11.30;79.60;;;;;;5031462;28;20464;-52
2021/04/26 00:22:54;;;;;;;4.88;3.10;;;11.20;79.70;;;;;;5031856;28;20444;-52
2021/04/26 00:25:21;;;;;;;4.33;3.07;;;11.20;80.80;;;;;;5031962;28;20210;-53
2021/04/26 00:27:48;;;;;;;5.30;3.70;;;11.30;80.30;;;;;;5031405;28;20488;-52
2021/04/26 00:30:17;;;;;;;3.50;3.20;;;11.20;80.50;;;;;;5038058;28;20478;-52
2021/04/26 00:32:47;;;;;;;5.53;2.83;;;11.10;80.70;;;;;;5031846;28;20543;-52
2021/04/26 00:35:14;;;;;;;8.53;3.90;;;11.20;80.70;;;;;;5031466;28;20460;-52
2021/04/26 00:37:45;;;;;;;4.30;3.23;;;10.90;82.50;;;;;;5031618;28;20956;-51
2021/04/26 00:40:13;;;;;;;4.37;3.00;;;10.80;82.50;;;;;;5019994;28;20480;-52
2021/04/26 00:42:40;;;;;;;4.70;3.23;;;10.60;82.50;;;;;;5033703;28;20464;-52
2021/04/26 00:45:10;;;;;;;8.30;3.73;;;10.70;82.60;;;;;;5034969;28;20453;-52
2021/04/26 00:47:41;;;;;;;4.77;3.03;;;10.50;83.70;;;;;;5034454;28;20484;-52
2021/04/26 00:50:11;;;;;;;4.20;2.90;;;10.20;83.80;;;;;;5034720;28;20469;-52
2021/04/26 00:52:42;;;;;;;4.70;3.00;;;10.20;84.20;;;;;;5034258;28;20444;-51
2021/04/26 00:55:11;;;;;;;3.50;2.43;;;10.10;84.90;;;;;;5033776;28;20515;-52
2021/04/26 00:57:37;;;;;;;6.97;3.10;;;10.20;84.70;;;;;;5031334;28;20452;-52
2021/04/26 01:00:06;;;;;;;5.20;3.20;;;10.30;84.50;;;;;;5031727;28;20476;-51
2021/04/26 01:02:32;;;;;;;6.33;3.40;;;10.20;86.70;;;;;;5032241;28;20456;-51
2021/04/26 01:05:00;;;;;;;5.47;3.40;;;9.80;88.30;;;;;;5031028;28;20452;-51
2021/04/26 01:07:28;;;;;;;5.40;3.70;;;9.50;89.50;;;;;;5031057;28;20483;-52
2021/04/26 01:09:54;;;;;;;9.20;3.90;;;9.50;90.30;;;;;;5045164;23;20905;-51
2021/04/26 01:12:32;;;;;;;6.73;3.60;;;9.30;90.40;;;;;;4999550;28;20810;-51
2021/04/26 01:15:09;;;;;;;6.83;3.70;;;9.30;90.40;;;;;;4993151;28;21033;-51
2021/04/26 01:17:43;;;;;;;6.10;3.20;;;9.40;90.40;;;;;;4986888;28;20500;-51
2021/04/26 01:20:41;;;;;;;5.83;3.37;;;9.50;90.10;;;;;;5010345;28;20464;-52
2021/04/26 01:23:39;;;;;;;4.53;3.47;;;9.60;90.00;;;;;;5031179;28;20463;-52
2021/04/26 01:26:09;;;;;;;5.40;3.50;;;9.60;90.00;;;;;;5028387;28;20871;-51
2021/04/26 01:28:45;;;;;;;5.30;3.50;;;9.60;90.20;;;;;;4992059;28;20579;-51
2021/04/26 01:31:15;;;;;;;4.10;3.23;;;9.50;90.30;;;;;;5007466;28;20535;-51
2021/04/26 01:33:47;;;;;;;7.63;3.30;;;9.50;90.20;;;;;;5013215;28;20461;-52
2021/04/26 01:36:19;;;;;;;4.17;3.03;;;9.70;90.20;;;;;;5011220;28;20446;-51
2021/04/26 01:38:47;;;;;;;5.80;3.57;;;9.50;90.90;;;;;;5012960;28;20446;-51
2021/04/26 01:41:14;;;;;;;5.83;3.50;;;9.30;91.00;;;;;;4991954;28;20504;-51
2021/04/26 01:43:42;;;;;;;4.80;3.53;;;9.30;91.20;;;;;;5009909;28;20809;-51
2021/04/26 01:46:12;;;;;;;5.60;3.33;;;9.10;91.40;;;;;;5020333;28;20449;-51
2021/04/26 01:48:43;;;;;;;5.43;3.50;;;9.00;91.60;;;;;;5027527;28;21053;-51
2021/04/26 01:51:12;;;;;;;5.03;3.20;;;8.80;92.00;;;;;;5021767;28;20465;-51
2021/04/26 01:53:40;;;;;;;5.23;3.47;;;8.70;92.20;;;;;;5017555;28;20502;-50
2021/04/26 01:56:09;;;;;;;5.33;3.60;;;8.80;92.10;;;;;;5014870;28;20463;-51
2021/04/26 01:58:40;;;;;;;5.43;3.50;;;8.80;92.10;;;;;;5014722;28;20950;-50
2021/04/26 02:01:06;;;;;;;6.57;3.43;;;8.70;92.40;;;;;;5026743;28;20472;-52
2021/04/26 02:03:33;;;;;;;5.93;3.83;;;8.80;92.30;;;;;;5023888;28;20489;-50
2021/04/26 02:06:02;;;;;;;4.63;3.37;;;8.80;92.00;;;;;;5021490;28;20453;-51
2021/04/26 02:08:29;;;;;;;4.13;3.20;;;8.80;92.00;;;;;;5027662;28;20519;-51
2021/04/26 02:10:56;;;;;;;7.37;3.17;;;9.10;91.50;;;;;;5024553;28;20473;-51
2021/04/26 02:13:25;;;;;;;5.80;3.60;;;9.10;91.50;;;;;;5014714;28;20443;-51
2021/04/26 02:15:54;;;;;;;4.37;3.30;;;9.00;91.50;;;;;;5022232;28;20447;-51
2021/04/26 02:18:21;;;;;;;6.60;3.47;;;9.00;91.30;;;;;;5015195;28;20456;-51
2021/04/26 02:20:47;;;;;;;4.03;3.30;;;9.30;91.10;;;;;;5014269;28;20472;-51
2021/04/26 02:23:15;;;;;;;4.27;2.70;;;9.30;90.90;;;;;;5017719;28;20440;-51
2021/04/26 02:25:42;;;;;;;5.40;3.10;;;9.40;90.60;;;;;;5033983;28;20452;-51
2021/04/26 02:28:08;;;;;;;7.10;3.30;;;9.60;90.40;;;;;;5027459;28;20483;-52
2021/04/26 02:30:35;;;;;;;4.80;3.37;;;9.50;90.60;;;;;;5014490;28;20503;-51
2021/04/26 02:33:05;;;;;;;7.50;3.77;;;9.40;90.60;;;;;;5014107;28;20460;-51
2021/04/26 02:35:38;;;;;;;4.57;2.87;;;9.30;90.40;;;;;;5014745;28;20445;-51
2021/04/26 02:38:06;;;;;;;5.93;3.27;;;9.50;90.20;;;;;;5013542;28;20480;-52
2021/04/26 02:40:37;;;;;;;4.40;3.13;;;9.00;90.80;;;;;;5017246;28;20476;-51
2021/04/26 02:43:06;;;;;;;4.77;2.90;;;8.90;90.90;;;;;;5009181;28;20448;-51
2021/04/26 02:45:36;;;;;;;4.93;3.10;;;9.10;90.50;;;;;;5021433;28;20463;-51
2021/04/26 02:48:03;;;;;;;4.70;3.30;;;9.10;90.90;;;;;;5014771;28;20493;-51
2021/04/26 02:50:31;;;;;;;6.00;3.83;;;8.90;90.80;;;;;;5021822;28;20485;-51
2021/04/26 02:52:57;;;;;;;6.10;3.50;;;9.00;90.70;;;;;;5014112;28;20453;-51
2021/04/26 02:55:25;;;;;;;6.80;3.30;;;9.00;90.70;;;;;;5013555;28;20495;-51
2021/04/26 02:57:55;;;;;;;6.67;3.47;;;9.00;90.80;;;;;;5025806;28;20996;-51
2021/04/26 03:00:23;;;;;;;5.27;3.30;;;9.10;90.60;;;;;;5014827;28;20480;-51
2021/04/26 03:02:51;;;;;;;4.77;3.73;;;8.90;91.00;;;;;;5013259;28;20870;-51
2021/04/26 03:05:18;;;;;;;4.87;3.53;;;8.80;91.30;;;;;;5022370;28;20452;-51
2021/04/26 03:07:46;;;;;;;6.53;3.80;;;8.60;91.40;;;;;;5033191;28;20483;-51
2021/04/26 03:10:15;;;;;;;6.53;3.30;;;8.50;91.60;;;;;;5023574;28;20563;-51
2021/04/26 03:12:47;;;;;;;9.40;3.93;;;8.40;91.70;;;;;;4997476;28;20476;-51
2021/04/26 03:15:17;;;;;;;5.13;3.43;;;8.20;91.40;;;;;;5013537;28;20450;-51
2021/04/26 03:17:45;;;;;;;3.40;2.90;;;8.10;91.60;;;;;;5028279;28;20495;-51
2021/04/26 03:20:14;;;;;;;5.60;3.60;;;8.20;91.50;;;;;;5031514;28;20527;-51
2021/04/26 03:22:43;;;;;;;5.80;3.60;;;8.10;91.90;;;;;;5031536;28;20449;-51
2021/04/26 03:25:11;;;;;;;6.97;4.10;;;8.10;91.70;;;;;;5024886;28;20460;-51
2021/04/26 03:27:40;;;;;;;7.23;3.77;;;8.10;91.90;;;;;;5023189;28;20919;-51
2021/04/26 03:30:09;;;;;;;7.40;3.57;;;8.20;92.00;;;;;;5023025;28;21001;-51
2021/04/26 03:32:37;;;;;;;5.70;3.87;;;8.30;92.10;;;;;;5023180;28;20497;-51
2021/04/26 03:35:06;;;;;;;5.00;3.30;;;8.30;92.20;;;;;;5016843;28;20846;-51
2021/04/26 03:37:33;;;;;;;8.53;4.00;;;8.40;91.80;;;;;;5016151;28;20452;-50
2021/04/26 03:40:01;;;;;;;5.60;3.90;;;8.30;92.50;;;;;;5017780;28;20845;-51
2021/04/26 03:42:28;;;;;;;6.10;3.67;;;8.40;92.10;;;;;;5014438;28;20491;-50
2021/04/26 03:44:54;;;;;;;6.40;3.70;;;8.60;92.00;;;;;;5012580;28;20461;-51
2021/04/26 03:47:21;;;;;;;6.10;4.17;;;8.70;91.90;;;;;;5013014;28;20488;-51
2021/04/26 03:49:48;;;;;;;5.77;3.57;;;8.80;91.80;;;;;;5015464;28;21067;-51
2021/04/26 03:52:15;;;;;;;5.67;3.53;;;8.70;92.30;;;;;;5022836;28;20455;-51
2021/04/26 03:54:41;;;;;;;7.43;4.13;;;8.50;92.80;;;;;;5013488;28;20468;-51
2021/04/26 03:57:08;;;;;;;11.70;4.00;;;8.60;92.70;;;;;;5027797;28;20449;-51
2021/04/26 03:59:35;;;;;;;7.10;4.40;;;8.70;92.30;;;;;;5012269;28;20457;-51
2021/04/26 04:02:01;;;;;;;7.10;4.13;;;8.60;92.60;;;;;;5012650;28;20513;-51
2021/04/26 04:04:28;;;;;;;5.73;4.60;;;8.50;92.80;;;;;;5014744;28;20879;-51
2021/04/26 04:06:56;;;;;;;4.93;3.67;;;8.30;93.30;;;;;;5026385;28;20461;-51
2021/04/26 04:09:22;;;;;;;8.00;3.80;;;8.10;93.80;;;;;;5028491;28;20465;-51
2021/04/26 04:11:49;;;;;;;8.63;4.60;;;8.10;94.00;;;;;;5019703;28;20457;-51
2021/04/26 04:14:15;;;;;;;6.30;4.20;;;8.20;94.20;;;;;;5031838;28;20527;-51
2021/04/26 04:16:42;;;;;;;7.17;4.30;;;8.00;94.50;;;;;;5024476;28;20835;-51
2021/04/26 04:19:08;;;;;;;5.17;4.13;;;8.10;94.70;;;;;;5010439;28;20441;-51
2021/04/26 04:21:35;;;;;;;5.03;3.80;;;8.10;94.50;;;;;;5017897;28;20465;-51
2021/04/26 04:24:03;;;;;;;10.93;3.80;;;8.10;94.40;;;;;;5018841;28;20458;-51
2021/04/26 04:26:30;;;;;;;6.30;4.00;;;8.10;94.20;;;;;;5012236;28;20464;-51
2021/04/26 04:28:57;;;;;;;5.50;3.70;;;8.10;94.40;;;;;;5029759;28;20484;-51
2021/04/26 04:31:23;;;;;;;8.10;4.03;;;7.90;94.60;;;;;;5029429;28;20465;-51
2021/04/26 04:33:50;;;;;;;6.03;3.90;;;8.00;94.80;;;;;;5029720;28;20475;-51
2021/04/26 04:36:16;;;;;;;6.67;3.90;;;8.00;94.70;;;;;;5014097;28;20454;-51
2021/04/26 04:38:43;;;;;;;5.13;3.97;;;8.30;94.40;;;;;;5011982;28;20446;-51
2021/04/26 04:41:10;;;;;;;5.63;3.90;;;8.10;94.70;;;;;;5027893;28;20477;-51
2021/04/26 04:43:38;;;;;;;9.00;3.90;;;8.20;94.70;;;;;;5031336;28;20510;-51
2021/04/26 04:46:06;;;;;;;6.27;3.90;;;8.20;94.60;;;;;;5026294;28;20957;-51
2021/04/26 04:48:33;;;;;;;5.90;3.63;;;8.20;94.40;;;;;;5022888;28;20541;-50
2021/04/26 04:50:59;;;;;;;8.30;3.60;;;7.90;94.70;;;;;;5012073;28;20528;-50
2021/04/26 04:53:26;;;;;;;5.90;3.77;;;7.80;95.00;;;;;;5000069;28;20875;-51
2021/04/26 04:55:53;;;;;;;8.13;4.10;;;7.70;94.70;;;;;;4992171;28;20505;-51
2021/04/26 04:58:20;;;;;;;8.37;3.47;;;7.70;94.80;;;;;;4992167;28;20655;-51
2021/04/26 05:00:50;;;;;;;8.33;3.87;;;7.70;94.50;;;;;;4992020;28;20475;-51
2021/04/26 05:03:16;;;;;;;7.43;4.00;;;7.70;94.50;;;;;;5011064;28;20460;-51
2021/04/26 05:05:43;;;;;;;5.40;3.70;;;7.70;94.30;;;;;;5031485;28;20456;-51
2021/04/26 05:08:09;;;;;;;5.13;3.60;;;7.80;94.40;;;;;;5018930;28;20478;-51
2021/04/26 05:10:36;;;;;;;6.97;3.83;;;8.00;94.20;;;;;;5011762;28;20480;-51
2021/04/26 05:13:03;;;;;;;7.53;3.50;;;8.10;94.00;;;;;;5011711;28;20507;-52
2021/04/26 05:15:30;;;;;;;3.83;3.37;;;7.90;94.20;;;;;;5021282;28;20456;-52
2021/04/26 05:17:57;;;;;;;6.70;4.10;;;8.10;93.90;;;;;;5031137;28;20445;-52
2021/04/26 05:20:24;;;;;;;4.57;3.60;;;8.40;93.60;;;;;;5031388;28;20513;-51
2021/04/26 05:22:52;;;;;;;6.50;3.30;;;8.40;93.40;;;;;;5031276;28;20540;-51
2021/04/26 05:25:19;;;;;;;7.13;3.90;;;8.20;94.10;;;;;;5031323;28;20450;-52
2021/04/26 05:27:46;;;;;;;5.67;3.80;;;8.10;94.40;;;;;;5033116;28;20565;-51
2021/04/26 05:30:13;;;;;;;6.10;3.80;;;7.90;94.40;;;;;;5032861;28;20525;-51
2021/04/26 05:32:44;;;;;;;5.60;3.70;;;7.80;94.70;;;;;;5034791;28;20459;-51
2021/04/26 05:35:12;;;;;;;5.93;4.07;;;7.80;94.70;;;;;;5034838;28;20834;-52
2021/04/26 05:37:40;;;;;;;9.33;4.10;;;7.80;95.50;;;;;;5034240;28;20887;-52
2021/04/26 05:40:08;;;;;;;5.30;3.43;;;8.00;95.00;;;;;;5035054;28;20472;-52
2021/04/26 05:42:34;;;;;;;7.30;4.33;;;8.10;94.70;;;;;;5025603;28;20844;-52
2021/04/26 05:45:01;;;;;;;5.23;4.10;;;8.40;94.50;;;;;;5020469;28;20510;-52
2021/04/26 05:47:28;;;;;;;6.40;4.27;;;8.30;94.80;;;;;;5016768;28;20541;-52
2021/04/26 05:49:55;;;;;;;10.57;4.83;;;8.40;94.60;;;;;;5014592;28;20473;-52
2021/04/26 05:52:22;;;;;;;6.60;4.00;;;8.80;94.60;;;;;;5018759;28;20531;-52
2021/04/26 05:54:48;;;;;;;8.00;4.40;;;9.10;93.50;;;;;;5014714;28;20455;-51
2021/04/26 05:57:15;;;;;;;10.97;4.97;;;9.10;93.10;;;;;;5000111;28;20460;-51
2021/04/26 05:59:42;;;;;;;7.10;4.60;;;9.20;92.80;;;;;;5014674;28;20997;-52
2021/04/26 06:02:09;;;;;;;5.20;3.83;;;9.60;91.90;;;;;;5014940;28;20452;-52
2021/04/26 06:04:35;;;;;;;8.60;4.80;;;9.90;91.70;;;;;;5014793;28;20989;-52
2021/04/26 06:07:03;;;;;;;8.80;4.60;;;10.20;91.00;;;;;;5014829;28;20459;-52
2021/04/26 06:09:30;;;;;;;6.70;4.60;;;10.40;90.30;;;;;;5014070;28;20821;-52
2021/04/26 06:11:56;;;;;;;6.73;4.73;;;10.80;90.20;;;;;;5014355;28;20939;-53
2021/04/26 06:14:23;;;;;;;8.07;4.93;;;10.80;90.00;;;;;;5014694;28;20463;-52
2021/04/26 06:16:49;;;;;;;11.60;4.60;;;10.80;90.40;;;;;;5014700;28;20977;-51
2021/04/26 06:19:16;;;;;;;7.17;4.63;;;10.90;90.00;;;;;;5015876;28;20963;-52
2021/04/26 06:21:42;;;;;;;7.67;5.10;;;10.70;90.30;;;;;;5015012;28;20476;-52
2021/04/26 06:24:10;;;;;;;8.93;4.90;;;10.70;90.30;;;;;;5015087;28;20504;-51
2021/04/26 06:26:37;;;;;;;10.37;5.03;;;10.30;90.30;;;;;;5015206;28;20807;-51
2021/04/26 06:29:04;;;;;;;6.93;4.73;;;10.40;90.80;;;;;;5022324;28;20491;-51
2021/04/26 06:31:30;;;;;;;7.30;4.90;;;10.10;91.30;;;;;;5034002;28;21005;-51
2021/04/26 06:33:57;;;;;;;7.13;4.80;;;9.50;92.90;;;;;;5034011;28;20449;-51
2021/04/26 06:36:23;;;;;;;8.60;5.00;;;9.30;93.30;;;;;;5033704;28;20533;-51
2021/04/26 06:38:50;;;;;;;6.13;4.27;;;9.40;93.80;;;;;;5005330;28;20476;-52
2021/04/26 06:41:17;;;;;;;8.47;4.77;;;9.30;93.20;;;;;;5014237;28;20848;-52
2021/04/26 06:43:43;;;;;;;6.63;4.93;;;9.70;92.60;;;;;;5014195;28;20454;-52
2021/04/26 06:46:10;;;;;;;6.63;5.03;;;9.80;93.00;;;;;;5013951;28;20456;-51
2021/04/26 06:48:37;;;;;;;8.97;5.10;;;9.90;93.00;;;;;;5013830;28;20481;-51
2021/04/26 06:51:03;;;;;;;6.73;5.30;;;10.10;91.60;;;;;;5013941;28;20472;-52
2021/04/26 06:53:30;;;;;;;10.90;5.13;;;10.10;91.70;;;;;;5014092;28;20939;-51
2021/04/26 06:55:57;;;;;;;12.60;5.80;;;9.60;92.70;;;;;;5013958;28;20465;-52
2021/04/26 06:58:24;;;;;;;7.53;5.30;;;9.80;92.80;;;;;;5013864;28;20445;-52
2021/04/26 07:00:51;;;;;;;6.63;4.90;;;10.20;92.00;;;;;;5012976;28;21008;-51
2021/04/26 07:03:17;;;;;;;7.70;4.90;;;10.60;91.40;;;;;;5013805;28;20457;-51
2021/04/26 07:05:44;;;;;;;9.70;5.63;;;11.00;90.80;;;;;;5013511;28;20983;-51
2021/04/26 07:08:10;;;;;;;5.80;4.70;;;11.00;90.50;;;;;;5013508;28;20857;-52
2021/04/26 07:10:36;;;;;;;9.53;5.30;;;10.90;90.60;;;;;;5029106;23;20935;-51
2021/04/26 07:13:03;;;;;;;9.00;5.43;;;11.00;91.00;;;;;;4991170;28;20457;-51
2021/04/26 07:15:31;;;;;;;8.67;5.33;;;10.80;91.30;;;;;;4993374;28;20451;-51
2021/04/26 07:17:57;;;;;;;7.90;4.80;;;11.00;90.70;;;;;;4993289;28;21012;-51
2021/04/26 07:20:24;;;;;;;7.53;5.00;;;10.90;90.60;;;;;;4986367;28;20473;-51
2021/04/26 07:22:50;;;;;;;7.80;5.87;;;11.20;90.30;;;;;;5013301;28;20469;-51
2021/04/26 07:25:17;;;;;;;11.63;5.77;;;10.40;91.70;;;;;;5013474;28;20453;-50
2021/04/26 07:27:43;;;;;;;7.73;5.80;;;10.10;92.40;;;;;;5013134;28;20485;-50
2021/04/26 07:30:11;;;;;;;8.53;5.83;;;9.60;93.50;;;;;;5012856;28;20484;-50
2021/04/26 07:32:41;;;;;;;7.40;5.17;;;9.40;93.80;;;;;;5012844;28;20453;-51
2021/04/26 07:35:11;;;;;;;8.07;5.50;;;9.60;93.60;;;;;;5024250;28;20510;-51
2021/04/26 07:37:38;;;;;;;7.80;6.03;;;9.90;93.10;;;;;;5021730;28;20449;-51
2021/04/26 07:40:06;;;;;;;7.20;5.37;;;10.20;92.60;;;;;;5013409;28;20500;-51
2021/04/26 07:42:32;;;;;;;7.67;5.50;;;10.60;92.30;;;;;;5012703;28;20452;-51
2021/04/26 07:44:59;;;;;;;9.60;5.93;;;10.20;92.60;;;;;;5013029;28;20761;-51
2021/04/26 07:47:25;;;;;;;11.00;5.50;;;9.70;94.50;;;;;;5011897;28;20478;-51
2021/04/26 07:49:53;;;;;;;12.97;6.17;;;9.90;94.00;;;;;;5013700;28;20460;-53
2021/04/26 07:52:20;;;;;;;13.27;6.10;;;10.10;93.70;;;;;;5022035;28;21042;-53
2021/04/26 07:54:46;;;;;;;7.30;6.00;;;10.40;94.00;;;;;;5012759;28;20483;-54
2021/04/26 07:57:13;;;;;;;10.50;5.83;;;11.00;92.80;;;;;;5012302;28;20958;-54
2021/04/26 07:59:39;;;;;;;8.80;6.20;;;10.70;92.50;;;;;;5011853;28;20456;-53
2021/04/26 08:02:06;;;;;;;8.77;5.93;;;10.70;92.60;;;;;;5014011;28;20481;-51
2021/04/26 08:04:32;;;;;;;14.10;6.40;;;11.30;92.80;;;;;;5029924;28;20456;-51
2021/04/26 08:06:59;;;;;;;25.30;6.67;;;11.60;92.00;;;;;;5000126;28;20788;-51
2021/04/26 08:09:26;;;;;;;9.20;6.10;;;11.80;90.80;;;;;;4997868;28;20496;-51
2021/04/26 08:11:52;;;;;;;7.80;5.90;;;11.70;91.10;;;;;;5011798;28;20540;-51
2021/04/26 08:14:19;;;;;;;12.50;5.90;;;11.10;92.20;;;;;;5012438;28;20527;-53
2021/04/26 08:16:45;;;;;;;9.50;6.87;;;11.90;91.80;;;;;;5017686;28;20989;-53
2021/04/26 08:19:12;;;;;;;9.07;6.80;;;11.90;91.30;;;;;;5012454;28;20454;-53
2021/04/26 08:21:39;;;;;;;8.47;6.10;;;12.00;91.50;;;;;;5012819;28;20470;-54
2021/04/26 08:24:07;;;;;;;8.93;6.20;;;12.00;90.90;;;;;;5014308;28;20450;-52
2021/04/26 08:26:34;;;;;;;12.33;7.23;;;12.30;91.50;;;;;;5015300;28;20458;-51
2021/04/26 08:29:00;;;;;;;9.10;6.13;;;13.30;89.50;;;;;;5014184;28;20540;-51
2021/04/26 08:31:27;;;;;;;11.47;6.60;;;13.90;85.30;;;;;;5028231;28;20469;-51
2021/04/26 08:33:53;;;;;;;8.53;6.40;;;13.00;89.70;;;;;;5034632;28;20456;-51
2021/04/26 08:36:20;;;;;;;10.93;6.43;;;13.20;90.00;;;;;;5036901;28;20449;-51
2021/04/26 08:38:47;;;;;;;10.50;6.57;;;13.00;89.20;;;;;;5033587;28;20471;-51
2021/04/26 08:41:15;;;;;;;8.07;6.20;;;12.90;88.10;;;;;;5033975;28;20465;-51
2021/04/26 08:43:42;;;;;;;10.73;7.47;;;12.50;89.60;;;;;;5032971;28;20459;-51
2021/04/26 08:46:09;;;;;;;11.97;6.20;;;11.90;90.40;;;;;;5035075;28;20816;-50
2021/04/26 08:48:35;;;;;;;11.53;6.43;;;12.00;90.60;;;;;;5033446;28;20507;-51
2021/04/26 08:51:02;;;;;;;17.93;6.60;;;11.70;91.20;;;;;;5031736;28;20897;-51
2021/04/26 08:53:29;;;;;;;10.30;6.60;;;11.60;89.80;;;;;;5027461;28;20457;-51
2021/04/26 08:55:56;;;;;;;9.17;6.47;;;12.00;89.90;;;;;;5011903;28;20450;-51
2021/04/26 08:58:23;;;;;;;8.57;6.10;;;12.70;86.50;;;;;;5020892;28;20449;-54
2021/04/26 09:00:50;;;;;;;12.10;6.60;;;13.60;83.30;;;;;;5011543;28;20475;-52
2021/04/26 09:03:16;;;;;;;9.70;6.30;;;14.10;83.20;;;;;;5011541;28;20465;-52
2021/04/26 09:05:44;;;;;;;10.17;6.20;;;13.60;87.00;;;;;;5012052;28;20453;-51
2021/04/26 09:08:13;;;;;;;8.07;6.03;;;13.90;83.30;;;;;;5011101;28;20987;-52
2021/04/26 09:10:45;;;;;;;10.13;6.90;;;13.20;84.30;;;;;;5010812;28;20489;-52
2021/04/26 09:13:27;;;;;;;8.83;6.80;;;14.40;80.60;;;;;;5001936;28;20449;-52
2021/04/26 09:15:55;;;;;;;9.40;5.60;;;14.80;86.20;;;;;;5012104;28;20544;-52
2021/04/26 09:18:42;;;;;;;9.90;7.20;;;15.20;85.10;;;;;;5011605;28;20453;-52
2021/04/26 09:21:21;;;;;;;8.90;6.20;;;14.70;82.60;;;;;;5011500;28;20524;-52
2021/04/26 09:24:12;;;;;;;10.40;6.60;;;13.60;85.80;;;;;;5011906;28;20481;-53
2021/04/26 09:26:39;;;;;;;10.30;6.30;;;13.70;85.00;;;;;;5027397;28;20452;-52
2021/04/26 09:29:32;;;;;;;10.37;6.60;;;13.90;85.70;;;;;;5024181;28;20488;-52
2021/04/26 09:32:07;;;;;;;7.77;6.40;;;14.40;84.10;;;;;;4997361;28;20477;-51
2021/04/26 09:34:38;;;;;;;9.70;6.83;;;14.60;84.00;;;;;;5011510;28;20441;-51
2021/04/26 09:37:08;;;;;;;8.60;6.20;;;14.00;83.50;;;;;;5011561;28;20449;-52
2021/04/26 09:39:36;;;;;;;10.00;6.63;;;13.60;85.40;;;;;;5018627;28;21088;-52
2021/04/26 09:42:03;;;;;;;8.93;6.00;;;13.80;84.40;;;;;;5030939;28;20518;-52
2021/04/26 09:44:31;;;;;;;8.27;6.23;;;14.60;86.10;;;;;;5031374;28;20473;-51
2021/04/26 09:46:58;;;;;;;10.83;6.80;;;14.60;84.10;;;;;;5031329;28;20532;-52
2021/04/26 09:49:27;;;;;;;9.07;6.90;;;14.20;85.30;;;;;;5030848;28;20484;-52
2021/04/26 09:51:55;;;;;;;9.30;6.77;;;14.40;84.40;;;;;;5031183;28;20473;-52
2021/04/26 09:54:35;;;;;;;10.57;6.50;;;15.10;84.20;;;;;;5016248;28;20456;-52
2021/04/26 09:57:02;;;;;;;7.47;6.43;;;15.70;80.10;;;;;;5011467;28;20453;-52
2021/04/26 09:59:29;;;;;;;10.60;6.50;;;16.50;78.50;;;;;;5011135;28;20532;-52
2021/04/26 10:01:57;;;;;;;8.97;6.33;;;17.00;79.40;;;;;;5011328;28;20465;-52
2021/04/26 10:04:24;;;;;;;12.43;7.00;;;16.00;80.50;;;;;;5011412;28;20516;-52
2021/04/26 10:06:52;;;;;;;10.00;6.30;;;15.80;78.20;;;;;;5011339;28;20455;-52
2021/04/26 10:09:19;;;;;;;9.60;7.00;;;16.30;81.40;;;;;;5010838;28;20493;-52
2021/04/26 10:11:46;;;;;;;9.90;6.90;;;16.70;79.90;;;;;;5011057;28;20513;-53
2021/04/26 10:14:15;;;;;;;9.03;6.67;;;16.00;84.20;;;;;;5014340;28;20445;-52
2021/04/26 10:16:45;;;;;;;10.10;7.23;;;16.00;82.40;;;;;;5014912;28;20962;-51
2021/04/26 10:19:16;;;;;;;9.43;6.60;;;16.10;85.10;;;;;;5015765;28;20460;-52
2021/04/26 10:21:53;;;;;;;9.17;6.80;;;16.50;81.00;;;;;;5023562;28;20475;-51
2021/04/26 10:24:21;;;;;;;9.33;6.97;;;16.50;84.90;;;;;;5036100;28;20475;-52
2021/04/26 10:26:52;;;;;;;8.73;6.70;;;15.50;83.50;;;;;;5034903;28;20444;-52
2021/04/26 10:29:24;;;;;;;8.87;7.30;;;15.70;81.20;;;;;;5034253;28;20579;-52
2021/04/26 10:32:04;;;;;;;10.73;7.37;;;15.70;82.20;;;;;;5034127;28;20487;-51
2021/04/26 10:34:33;;;;;;;13.57;7.53;;;15.00;86.80;;;;;;5034294;28;20456;-52
2021/04/26 10:37:02;;;;;;;14.23;7.23;;;15.40;90.60;;;;;;5013581;28;20453;-54
2021/04/26 10:39:31;;;;;;;10.63;6.53;;;15.80;87.00;;;;;;5014085;28;20453;-51
2021/04/26 10:42:03;;;;;;;14.00;8.17;;;16.40;84.30;;;;;;5014247;28;20512;-51
2021/04/26 10:44:54;;;;;;;9.40;7.27;;;17.10;84.80;;;;;;5014028;28;20460;-52
2021/04/26 10:47:26;;;;;;;11.17;7.47;;;17.50;80.10;;;;;;4999625;28;20457;-51
2021/04/26 10:50:30;;;;;;;10.63;7.47;;;17.60;82.10;;;;;;5023744;28;20485;-52
2021/04/26 10:52:59;;;;;;;14.73;7.10;;;17.60;81.80;;;;;;5033674;28;20444;-52
2021/04/26 10:55:46;;;;;;;8.77;7.40;;;17.60;83.80;;;;;;5033905;28;20448;-52
2021/04/26 10:58:29;;;;;;;9.10;7.20;;;17.10;86.50;;;;;;5033538;28;20455;-51
2021/04/26 11:00:56;;;;;;;10.13;7.30;;;17.50;81.50;;;;;;5033639;28;20555;-52
2021/04/26 11:03:42;;;;;;;9.63;7.70;;;17.60;79.10;;;;;;5027246;28;20453;-54
2021/04/26 11:06:18;;;;;;;11.00;7.53;;;17.10;82.00;;;;;;5013901;28;20934;-51
2021/04/26 11:08:50;;;;;;;11.60;8.10;;;17.10;82.10;;;;;;5013415;28;20485;-52
2021/04/26 11:11:19;;;;;;;12.07;8.10;;;17.20;87.10;;;;;;5013522;28;20986;-51
2021/04/26 11:13:52;;;;;;;10.00;8.10;;;17.00;86.30;;;;;;5013587;28;20830;-51
2021/04/26 11:16:21;;;;;;;11.00;8.10;;;16.50;85.30;;;;;;5014026;28;20457;-51
2021/04/26 11:19:10;;;;;;;10.73;8.00;;;16.20;82.90;;;;;;5031572;28;20448;-51
2021/04/26 11:22:04;;;;;;;10.47;8.10;;;16.10;86.30;;;;;;5033521;28;20485;-51
2021/04/26 11:25:00;;;;;;;10.63;8.30;;;15.60;89.10;;;;;;5033136;28;20531;-51
2021/04/26 11:27:27;;;;;;;12.07;7.80;;;15.80;84.00;;;;;;5033551;28;20476;-51
2021/04/26 11:30:30;;;;;;;9.30;7.27;;;16.40;91.40;;;;;;5033116;28;20930;-50
2021/04/26 11:33:05;;;;;;;12.63;7.90;;;16.70;85.30;;;;;;5032704;28;20494;-54
2021/04/26 11:35:33;;;;;;;10.40;7.90;;;16.50;81.90;;;;;;5033591;28;20456;-51
2021/04/26 11:38:01;;;;;;;12.07;7.80;;;16.70;84.00;;;;;;5033091;28;20448;-51
2021/04/26 11:40:29;;;;;;;9.57;7.33;;;17.10;81.90;;;;;;5032950;28;20990;-51
2021/04/26 11:43:04;;;;;;;11.27;7.73;;;17.40;81.10;;;;;;5033235;28;20451;-51
2021/04/26 11:45:30;;;;;;;12.13;7.70;;;17.20;83.40;;;;;;5025149;28;20449;-51
2021/04/26 11:47:57;;;;;;;12.13;8.30;;;17.20;85.20;;;;;;4999351;28;21071;-54
2021/04/26 11:50:23;;;;;;;10.10;7.53;;;16.80;85.50;;;;;;5032939;28;20484;-54
2021/04/26 11:52:50;;;;;;;12.00;8.17;;;16.90;83.80;;;;;;5032981;28;20448;-52
2021/04/26 11:55:19;;;;;;;10.27;8.10;;;17.00;86.00;;;;;;5032825;28;20449;-51
2021/04/26 11:57:48;;;;;;;14.27;8.47;;;16.50;87.60;;;;;;5032781;28;20448;-51
2021/04/26 12:00:17;;;;;;;11.07;7.53;;;16.50;84.30;;;;;;5018728;28;20505;-51
2021/04/26 12:02:45;;;;;;;12.20;7.97;;;16.60;83.30;;;;;;5012941;28;20511;-52
2021/04/26 12:05:14;;;;;;;15.07;8.80;;;16.80;82.70;;;;;;5012996;28;20449;-51
2021/04/26 12:07:41;;;;;;;11.53;8.33;;;16.40;89.00;;;;;;5012485;28;20507;-51
2021/04/26 12:10:10;;;;;;;15.07;7.77;;;16.60;86.30;;;;;;5012614;28;20543;-52
2021/04/26 12:12:42;;;;;;;13.13;8.30;;;16.60;85.60;;;;;;5014204;28;20453;-52
2021/04/26 12:15:10;;;;;;;14.50;8.40;;;16.50;83.70;;;;;;5033144;28;20444;-51
2021/04/26 12:17:38;;;;;;;12.47;7.47;;;16.80;81.90;;;;;;5032487;28;20487;-52
2021/04/26 12:20:17;;;;;;;12.20;8.03;;;17.10;81.70;;;;;;5032314;28;20907;-52
2021/04/26 12:22:44;;;;;;;11.75;8.40;;;17.40;81.10;;;;;;5011046;28;20440;-51
2021/04/26 12:25:13;;;;;;;9.90;7.73;;;17.70;84.40;;;;;;4992986;28;20238;-52
2021/04/26 12:27:41;;;;;;;10.67;8.47;;;17.60;82.70;;;;;;5011022;28;20453;-52
2021/04/26 12:30:10;;;;;;;11.93;8.47;;;17.50;82.00;;;;;;5012909;28;20997;-52
2021/04/26 12:32:39;;;;;;;10.27;7.57;;;17.60;81.60;;;;;;5012538;28;20453;-52
2021/04/26 12:35:07;;;;;;;13.87;8.53;;;17.70;81.10;;;;;;5012101;28;20962;-52
2021/04/26 12:37:35;;;;;;;10.80;7.33;;;17.50;82.20;;;;;;5006060;28;20471;-53
2021/04/26 12:40:15;;;;;;;10.63;7.80;;;17.80;82.50;;;;;;4992599;28;20450;-52
2021/04/26 12:42:43;;;;;;;10.20;8.23;;;18.00;78.10;;;;;;5028186;28;20452;-52
2021/04/26 12:45:12;;;;;;;11.63;8.23;;;17.80;80.30;;;;;;5031931;28;20510;-52
2021/04/26 12:47:58;;;;;;;10.90;7.77;;;17.60;81.60;;;;;;5018973;28;20459;-52
2021/04/26 12:50:30;;;;;;;11.70;8.00;;;17.70;82.10;;;;;;5012102;28;21058;-52
2021/04/26 12:53:15;;;;;;;11.17;8.60;;;17.90;82.60;;;;;;5012248;28;20944;-52
2021/04/26 12:55:45;;;;;;;13.23;7.80;;;17.40;79.60;;;;;;5021011;28;20487;-52
2021/04/26 12:58:15;;;;;;;16.53;8.20;;;17.30;84.50;;;;;;5031464;28;20456;-52